Time;durP1;ratioP1;P1;durP2;ratioP2;P2;SDS_P1;SDS_P2;PMS_P1;PMS_P2;Temp;Humidity;BMP_temperature;BMP_pressure;BME280_temperature;BME280_humidity;BME280_pressure;Samples;Min_cycle;Max_cycle;Signal;HPM_P1;HPM_P2
2021/06/07 00:01:05;;;;;;;2.97;2.77;;;25.30;77.90;;;;;;5118636;27;20445;-89
2021/06/07 00:03:32;;;;;;;3.07;2.87;;;25.30;77.90;;;;;;5136679;27;20445;-88
2021/06/07 00:05:58;;;;;;;3.87;3.67;;;25.30;77.90;;;;;;5136547;27;20497;-88
2021/06/07 00:08:25;;;;;;;3.10;2.90;;;25.30;77.90;;;;;;5136724;27;20437;-89
2021/06/07 00:10:53;;;;;;;3.73;3.50;;;25.20;77.80;;;;;;5136303;27;20930;-89
2021/06/07 00:13:20;;;;;;;3.53;3.33;;;25.30;77.90;;;;;;5136599;27;20958;-88
2021/06/07 00:15:48;;;;;;;3.10;2.90;;;25.30;77.90;;;;;;5136285;27;20535;-88
2021/06/07 00:18:16;;;;;;;3.20;3.00;;;25.30;77.90;;;;;;5136279;27;20526;-88
2021/06/07 00:20:45;;;;;;;2.90;2.80;;;25.30;77.90;;;;;;5136250;27;20591;-89
2021/06/07 00:23:12;;;;;;;3.20;3.00;;;25.30;77.90;;;;;;5135951;27;20465;-89
2021/06/07 00:25:40;;;;;;;3.33;3.13;;;25.20;77.70;;;;;;5136105;27;20535;-89
2021/06/07 00:28:08;;;;;;;2.73;2.63;;;25.30;77.90;;;;;;5135977;27;20782;-88
2021/06/07 00:30:35;;;;;;;3.00;2.80;;;25.30;77.90;;;;;;5135869;27;20990;-88
2021/06/07 00:33:01;;;;;;;3.40;3.20;;;25.30;77.90;;;;;;5135534;27;20476;-89
2021/06/07 00:35:31;;;;;;;3.40;3.20;;;25.30;77.90;;;;;;5136055;27;20444;-88
2021/06/07 00:37:57;;;;;;;3.07;2.90;;;25.30;77.80;;;;;;5135865;27;20535;-89
2021/06/07 00:40:25;;;;;;;3.30;3.10;;;25.20;77.70;;;;;;5136247;27;20449;-89
2021/06/07 00:42:52;;;;;;;2.67;2.57;;;25.20;77.70;;;;;;5136036;27;20433;-89
2021/06/07 00:45:22;;;;;;;3.20;3.00;;;25.20;77.70;;;;;;5135895;27;20443;-89
2021/06/07 00:47:50;;;;;;;2.83;2.63;;;25.20;77.70;;;;;;5136383;27;20433;-89
2021/06/07 00:50:26;;;;;;;2.90;2.70;;;25.20;77.80;;;;;;5135635;27;20509;-89
2021/06/07 00:53:02;;;;;;;2.40;2.30;;;25.20;77.70;;;;;;5135331;27;20485;-89
2021/06/07 00:55:31;;;;;;;3.53;3.33;;;25.20;77.70;;;;;;5135374;27;20787;-89
2021/06/07 00:57:58;;;;;;;3.37;3.17;;;25.20;77.70;;;;;;5136510;27;20443;-88
2021/06/07 01:00:27;;;;;;;3.00;2.80;;;25.20;77.70;;;;;;5135375;27;20435;-88
2021/06/07 01:02:54;;;;;;;2.70;2.60;;;25.20;77.70;;;;;;5135718;27;20435;-89
2021/06/07 01:05:20;;;;;;;3.53;3.23;;;25.20;77.80;;;;;;5136984;27;20528;-88
2021/06/07 01:07:47;;;;;;;3.43;3.23;;;25.20;77.70;;;;;;5137253;27;20448;-88
2021/06/07 01:10:14;;;;;;;3.37;3.17;;;25.20;77.70;;;;;;5135257;27;20443;-89
2021/06/07 01:12:41;;;;;;;3.20;3.00;;;25.20;77.70;;;;;;5135147;27;20980;-88
2021/06/07 01:15:09;;;;;;;3.50;3.30;;;25.20;77.70;;;;;;5135200;27;20448;-89
2021/06/07 01:17:37;;;;;;;3.40;3.20;;;25.20;77.70;;;;;;5134773;27;20471;-88
2021/06/07 01:20:06;;;;;;;3.30;3.10;;;25.20;77.70;;;;;;5134827;27;20436;-88
2021/06/07 01:22:35;;;;;;;2.93;2.73;;;25.20;77.70;;;;;;5135341;27;20546;-89
2021/06/07 01:25:01;;;;;;;3.13;2.93;;;25.20;77.70;;;;;;5134937;27;20505;-89
2021/06/07 01:27:28;;;;;;;3.57;3.37;;;25.20;77.70;;;;;;5134908;27;20436;-89
2021/06/07 01:29:54;;;;;;;3.50;3.30;;;25.20;77.70;;;;;;5134649;27;20555;-89
2021/06/07 01:32:21;;;;;;;3.50;3.30;;;25.20;77.60;;;;;;5134567;27;20478;-88
2021/06/07 01:34:47;;;;;;;3.23;2.93;;;25.20;77.70;;;;;;5134549;27;20543;-89
2021/06/07 01:37:14;;;;;;;3.20;3.00;;;25.20;77.60;;;;;;5134354;27;20572;-89
2021/06/07 01:39:41;;;;;;;3.13;2.93;;;25.20;77.70;;;;;;5134626;27;20953;-89
2021/06/07 01:42:08;;;;;;;3.40;3.20;;;25.20;77.70;;;;;;5134479;27;20935;-88
2021/06/07 01:44:35;;;;;;;3.27;3.07;;;25.20;77.70;;;;;;5134424;27;20451;-88
2021/06/07 01:47:01;;;;;;;3.53;3.33;;;25.20;77.70;;;;;;5134472;27;20449;-88
2021/06/07 01:49:27;;;;;;;3.57;3.27;;;25.20;77.60;;;;;;5134962;27;20440;-88
2021/06/07 01:51:53;;;;;;;3.73;3.43;;;25.20;77.70;;;;;;5134340;28;20832;-88
2021/06/07 01:54:20;;;;;;;3.80;3.60;;;25.20;77.60;;;;;;5134557;28;20506;-88
2021/06/07 01:56:48;;;;;;;3.47;3.27;;;25.20;77.60;;;;;;5134241;28;20443;-88
2021/06/07 01:59:14;;;;;;;3.70;3.40;;;25.20;77.60;;;;;;5134362;28;20451;-88
2021/06/07 02:01:40;;;;;;;3.03;2.83;;;25.20;77.60;;;;;;5134248;28;21008;-88
2021/06/07 02:04:07;;;;;;;3.40;3.20;;;25.20;77.60;;;;;;5134148;28;20448;-88
2021/06/07 02:06:33;;;;;;;3.30;3.10;;;25.20;77.60;;;;;;5134344;28;20527;-88
2021/06/07 02:09:00;;;;;;;3.80;3.60;;;25.20;77.60;;;;;;5134168;28;20451;-88
2021/06/07 02:11:28;;;;;;;3.40;3.20;;;25.20;77.60;;;;;;5136528;27;20579;-88
2021/06/07 02:13:58;;;;;;;3.57;3.37;;;25.20;77.70;;;;;;5138428;27;20483;-88
2021/06/07 02:16:27;;;;;;;3.73;3.53;;;25.20;77.60;;;;;;5138747;27;20812;-88
2021/06/07 02:18:54;;;;;;;3.27;3.07;;;25.20;77.60;;;;;;5138362;27;20447;-88
2021/06/07 02:21:23;;;;;;;3.77;3.57;;;25.20;77.70;;;;;;5147427;27;20429;-88
2021/06/07 02:23:52;;;;;;;4.00;3.70;;;25.20;77.70;;;;;;5160799;27;20435;-88
2021/06/07 02:26:19;;;;;;;4.37;4.07;;;25.20;77.60;;;;;;5161663;27;20502;-88
2021/06/07 02:28:48;;;;;;;3.53;3.33;;;25.20;77.60;;;;;;5155581;27;20438;-88
2021/06/07 02:31:16;;;;;;;3.70;3.50;;;25.20;77.60;;;;;;5142396;27;20529;-88
2021/06/07 02:33:43;;;;;;;3.77;3.57;;;25.20;77.60;;;;;;5141221;27;20448;-88
2021/06/07 02:36:09;;;;;;;3.97;3.77;;;25.20;77.60;;;;;;5140190;27;20916;-88
2021/06/07 02:38:36;;;;;;;4.33;4.03;;;25.20;77.60;;;;;;5138898;27;20475;-88
2021/06/07 02:41:03;;;;;;;3.50;3.30;;;25.20;77.60;;;;;;5138573;27;20439;-88
2021/06/07 02:43:29;;;;;;;3.67;3.47;;;25.20;77.60;;;;;;5138501;27;20454;-88
2021/06/07 02:45:55;;;;;;;3.37;3.17;;;25.20;77.60;;;;;;5138434;27;20549;-88
2021/06/07 02:48:23;;;;;;;5.73;3.67;;;25.20;77.60;;;;;;5138347;27;20921;-88
2021/06/07 02:50:50;;;;;;;3.50;3.20;;;25.20;77.60;;;;;;5138428;27;20584;-89
2021/06/07 02:53:18;;;;;;;3.30;3.10;;;25.20;77.60;;;;;;5137865;27;20496;-88
2021/06/07 02:55:47;;;;;;;3.93;3.73;;;25.20;77.60;;;;;;5137868;27;20444;-88
2021/06/07 02:58:13;;;;;;;3.20;3.10;;;25.20;77.60;;;;;;5137870;27;20475;-88
2021/06/07 03:00:42;;;;;;;3.70;3.50;;;25.20;77.60;;;;;;5137946;27;20442;-88
2021/06/07 03:03:09;;;;;;;3.60;3.40;;;25.20;77.60;;;;;;5137974;27;20538;-88
2021/06/07 03:05:38;;;;;;;4.10;3.80;;;25.20;77.50;;;;;;5137780;27;20440;-88
2021/06/07 03:08:06;;;;;;;4.10;3.80;;;25.20;77.50;;;;;;5137815;27;20430;-88
2021/06/07 03:10:32;;;;;;;3.70;3.50;;;25.20;77.60;;;;;;5137778;27;20447;-88
2021/06/07 03:12:58;;;;;;;4.20;3.90;;;25.20;77.50;;;;;;5137909;27;20561;-88
2021/06/07 03:15:25;;;;;;;3.37;3.17;;;25.20;77.60;;;;;;5137471;27;20439;-88
2021/06/07 03:17:53;;;;;;;3.87;3.60;;;25.20;77.50;;;;;;5137785;27;20440;-89
2021/06/07 03:20:23;;;;;;;3.33;3.13;;;25.20;77.50;;;;;;5137341;27;20442;-88
2021/06/07 03:22:50;;;;;;;4.17;3.87;;;25.10;77.40;;;;;;5136333;27;20494;-89
2021/06/07 03:25:17;;;;;;;3.77;3.57;;;25.20;77.50;;;;;;5137740;27;20530;-89
2021/06/07 03:27:44;;;;;;;3.40;3.20;;;25.10;77.40;;;;;;5137486;27;20444;-89
2021/06/07 03:30:12;;;;;;;3.10;2.90;;;25.20;77.50;;;;;;5137288;27;20431;-88
2021/06/07 03:32:39;;;;;;;3.57;3.37;;;25.10;77.40;;;;;;5137504;27;20480;-89
2021/06/07 03:35:07;;;;;;;3.40;3.20;;;25.10;77.40;;;;;;5137293;27;20522;-88
2021/06/07 03:37:33;;;;;;;3.53;3.33;;;25.10;77.30;;;;;;5137167;27;20495;-89
2021/06/07 03:40:04;;;;;;;3.33;3.13;;;25.20;77.40;;;;;;5137170;27;20534;-89
2021/06/07 03:42:30;;;;;;;3.50;3.30;;;25.10;77.30;;;;;;5137254;27;20439;-88
2021/06/07 03:44:56;;;;;;;3.73;3.47;;;25.10;77.30;;;;;;5137036;27;20489;-88
2021/06/07 03:47:23;;;;;;;3.70;3.50;;;25.10;78.10;;;;;;5137076;27;20445;-89
2021/06/07 03:49:49;;;;;;;3.50;3.30;;;25.10;77.20;;;;;;5137217;27;20515;-89
2021/06/07 03:52:15;;;;;;;2.73;2.57;;;25.10;77.30;;;;;;5136369;27;20577;-88
2021/06/07 03:54:42;;;;;;;3.83;3.63;;;25.10;77.30;;;;;;5136525;27;20439;-89
2021/06/07 03:57:10;;;;;;;3.20;3.00;;;25.10;77.20;;;;;;5136406;27;20483;-89
2021/06/07 03:59:36;;;;;;;2.97;2.77;;;25.10;77.20;;;;;;5136701;27;20451;-88
2021/06/07 04:02:07;;;;;;;3.30;3.10;;;25.10;77.10;;;;;;5137104;27;20924;-89
2021/06/07 04:04:33;;;;;;;4.23;3.93;;;25.20;77.30;;;;;;5137483;27;20482;-88
2021/06/07 04:06:59;;;;;;;3.10;2.90;;;25.10;77.20;;;;;;5137848;27;20444;-88
2021/06/07 04:09:26;;;;;;;3.30;3.10;;;25.10;77.20;;;;;;5138395;27;20641;-88
2021/06/07 04:11:54;;;;;;;4.20;3.90;;;25.10;77.10;;;;;;5138462;27;20551;-89
2021/06/07 04:14:21;;;;;;;3.83;3.53;;;25.10;77.10;;;;;;5139546;27;20538;-88
2021/06/07 04:16:48;;;;;;;3.23;3.03;;;25.10;77.10;;;;;;5136409;27;20440;-88
2021/06/07 04:19:14;;;;;;;3.80;3.60;;;25.20;77.20;;;;;;5136412;27;20436;-88
2021/06/07 04:21:41;;;;;;;4.03;3.80;;;25.10;77.10;;;;;;5136170;27;20843;-89
2021/06/07 04:24:08;;;;;;;3.90;3.70;;;25.10;77.10;;;;;;5135709;27;20455;-89
2021/06/07 04:26:35;;;;;;;3.37;3.17;;;25.10;77.00;;;;;;5136092;27;20447;-88
2021/06/07 04:29:02;;;;;;;3.63;3.33;;;25.10;77.10;;;;;;5135901;27;20920;-90
2021/06/07 04:31:29;;;;;;;3.67;3.47;;;25.10;77.00;;;;;;5136046;27;20851;-89
2021/06/07 04:33:56;;;;;;;4.03;3.80;;;25.10;77.10;;;;;;5135587;27;20451;-90
2021/06/07 04:36:22;;;;;;;3.50;3.30;;;25.10;77.00;;;;;;5135806;27;20906;-89
2021/06/07 04:38:48;;;;;;;4.30;3.97;;;25.10;77.00;;;;;;5135476;27;20561;-89
2021/06/07 04:41:15;;;;;;;3.93;3.70;;;25.10;77.00;;;;;;5135523;27;20534;-89
2021/06/07 04:43:41;;;;;;;3.90;3.60;;;25.10;77.00;;;;;;5135448;27;20853;-90
2021/06/07 04:46:08;;;;;;;4.20;3.93;;;25.10;77.00;;;;;;5135490;27;20526;-89
2021/06/07 04:48:35;;;;;;;3.80;3.60;;;25.10;77.00;;;;;;5135652;27;20453;-89
2021/06/07 04:51:02;;;;;;;3.70;3.50;;;25.10;77.00;;;;;;5135512;27;20435;-89
2021/06/07 04:53:28;;;;;;;3.30;3.10;;;25.10;77.00;;;;;;5135058;27;20544;-90
2021/06/07 04:55:55;;;;;;;3.83;3.63;;;25.10;77.00;;;;;;5135387;27;20522;-90
2021/06/07 04:58:25;;;;;;;3.50;3.30;;;25.10;76.90;;;;;;5135243;27;20530;-90
2021/06/07 05:00:53;;;;;;;3.97;3.70;;;25.10;76.90;;;;;;5135308;27;20443;-89
2021/06/07 05:03:20;;;;;;;3.77;3.57;;;25.10;76.90;;;;;;5129483;27;20449;-89
2021/06/07 05:05:48;;;;;;;3.40;3.20;;;25.10;76.90;;;;;;5122441;27;20427;-89
2021/06/07 05:08:15;;;;;;;3.50;3.30;;;25.10;76.90;;;;;;5122221;27;20436;-89
2021/06/07 05:10:41;;;;;;;3.63;3.33;;;25.10;76.80;;;;;;5124724;27;20437;-89
2021/06/07 05:13:09;;;;;;;4.13;3.90;;;25.10;76.80;;;;;;5117644;27;20574;-89
2021/06/07 05:15:35;;;;;;;4.00;3.70;;;25.10;76.90;;;;;;5114399;28;20507;-90
2021/06/07 05:18:02;;;;;;;4.00;3.80;;;25.10;76.90;;;;;;5114312;28;20443;-89
2021/06/07 05:20:29;;;;;;;3.40;3.20;;;25.10;76.70;;;;;;5114440;28;20436;-90
2021/06/07 05:22:58;;;;;;;4.70;4.40;;;25.10;76.70;;;;;;5113820;28;20959;-90
2021/06/07 05:25:25;;;;;;;3.63;3.40;;;25.10;76.70;;;;;;5128989;27;20459;-90
2021/06/07 05:27:54;;;;;;;3.50;3.30;;;25.20;76.80;;;;;;5130204;27;20444;-89
2021/06/07 05:30:22;;;;;;;3.67;3.47;;;25.10;76.80;;;;;;5114374;28;20443;-89
2021/06/07 05:32:49;;;;;;;3.70;3.40;;;25.10;76.70;;;;;;5114020;28;20612;-89
2021/06/07 05:35:17;;;;;;;3.57;3.37;;;25.10;76.70;;;;;;5113877;28;20932;-89
2021/06/07 05:37:44;;;;;;;3.90;3.70;;;25.10;77.20;;;;;;5121949;27;20472;-90
2021/06/07 05:40:14;;;;;;;4.40;4.10;;;25.10;76.70;;;;;;5125367;27;20940;-89
2021/06/07 05:42:41;;;;;;;3.80;3.50;;;25.10;76.70;;;;;;5125865;27;20831;-88
2021/06/07 05:45:10;;;;;;;3.63;3.43;;;25.10;77.60;;;;;;5134311;27;20485;-88
2021/06/07 05:50:58;;;;;;;3.73;3.53;;;25.10;76.60;;;;;;5135199;27;20407;-90
2021/06/07 05:53:25;;;;;;;3.70;3.50;;;25.10;76.90;;;;;;5134993;28;20586;-90
2021/06/07 05:55:52;;;;;;;3.80;3.60;;;25.10;76.80;;;;;;5135805;28;20542;-89
2021/06/07 05:58:20;;;;;;;3.20;3.00;;;25.10;76.80;;;;;;5136362;28;20457;-89
2021/06/07 06:00:49;;;;;;;3.60;3.40;;;25.10;76.80;;;;;;5136460;28;20442;-89
2021/06/07 06:03:15;;;;;;;3.33;3.03;;;25.10;76.80;;;;;;5135579;28;20487;-88
2021/06/07 06:05:42;;;;;;;4.00;3.70;;;25.10;76.70;;;;;;5136990;28;20441;-88
2021/06/07 06:08:10;;;;;;;4.03;3.83;;;25.10;76.70;;;;;;5140699;28;20531;-89
2021/06/07 06:10:37;;;;;;;3.60;3.40;;;25.10;76.70;;;;;;5136911;28;20443;-89
2021/06/07 06:13:05;;;;;;;4.43;3.47;;;25.10;76.60;;;;;;5134583;28;20471;-89
2021/06/07 06:15:33;;;;;;;4.20;3.80;;;25.10;76.70;;;;;;5134465;28;20534;-87
2021/06/07 06:18:00;;;;;;;4.30;4.00;;;25.10;76.80;;;;;;5134352;28;20461;-86
2021/06/07 06:20:29;;;;;;;4.47;4.17;;;25.20;76.60;;;;;;5134723;28;20441;-90
2021/06/07 06:22:56;;;;;;;4.53;4.23;;;25.10;76.30;;;;;;5134636;28;20454;-89
2021/06/07 06:25:22;;;;;;;4.47;4.17;;;25.10;76.50;;;;;;5134886;28;20444;-89
2021/06/07 06:27:49;;;;;;;4.07;3.80;;;25.10;76.50;;;;;;5134723;28;20444;-89
2021/06/07 06:30:20;;;;;;;4.40;4.00;;;25.10;76.60;;;;;;5134657;28;20835;-89
2021/06/07 06:32:48;;;;;;;6.63;4.27;;;25.10;76.60;;;;;;5135098;28;20559;-86
2021/06/07 06:35:15;;;;;;;4.30;4.00;;;25.10;76.60;;;;;;5134189;28;20435;-89
2021/06/07 06:37:44;;;;;;;3.70;3.50;;;25.10;76.60;;;;;;5133740;28;20495;-90
2021/06/07 06:40:12;;;;;;;4.23;3.93;;;25.10;76.50;;;;;;5134697;28;20447;-90
2021/06/07 06:42:39;;;;;;;5.03;4.73;;;25.10;76.60;;;;;;5134539;28;20446;-88
2021/06/07 06:45:07;;;;;;;4.13;3.83;;;25.10;76.70;;;;;;5134612;28;21003;-89
2021/06/07 06:47:35;;;;;;;4.57;4.27;;;25.10;76.70;;;;;;5134134;28;20439;-89
2021/06/07 06:50:02;;;;;;;4.67;4.37;;;25.10;76.70;;;;;;5134530;28;20775;-89
2021/06/07 06:52:28;;;;;;;4.40;4.03;;;25.10;76.70;;;;;;5134108;28;20490;-89
2021/06/07 06:54:54;;;;;;;5.00;4.60;;;25.10;76.80;;;;;;5134849;28;20459;-90
2021/06/07 06:57:21;;;;;;;3.87;3.67;;;25.10;76.70;;;;;;5134749;27;20521;-89
2021/06/07 06:59:47;;;;;;;4.73;4.43;;;25.10;76.70;;;;;;5137940;27;20439;-90
2021/06/07 07:02:13;;;;;;;3.97;3.70;;;25.10;76.70;;;;;;5138219;27;20442;-89
2021/06/07 07:04:41;;;;;;;4.53;4.23;;;25.10;76.80;;;;;;5138396;27;20819;-88
2021/06/07 07:07:07;;;;;;;4.40;4.10;;;25.10;76.80;;;;;;5138266;27;20454;-89
2021/06/07 07:09:33;;;;;;;4.30;4.00;;;25.10;76.80;;;;;;5137743;27;20847;-89
2021/06/07 07:12:00;;;;;;;4.00;3.80;;;25.10;76.80;;;;;;5137717;27;20469;-88
2021/06/07 07:14:26;;;;;;;4.13;3.77;;;25.10;76.80;;;;;;5137759;27;20880;-89
2021/06/07 07:16:53;;;;;;;3.90;3.70;;;25.20;76.70;;;;;;5141804;27;20485;-88
2021/06/07 07:19:20;;;;;;;3.70;3.50;;;25.10;76.60;;;;;;5145420;27;20447;-89
2021/06/07 07:21:48;;;;;;;4.10;3.87;;;25.10;76.60;;;;;;5146285;27;20443;-85
2021/06/07 07:24:14;;;;;;;3.30;3.10;;;25.10;76.60;;;;;;5142117;27;20447;-88
2021/06/07 07:26:41;;;;;;;3.23;2.93;;;25.10;76.60;;;;;;5139680;27;20514;-89
2021/06/07 07:29:07;;;;;;;7.30;4.80;;;25.10;76.60;;;;;;5139008;27;20444;-86
2021/06/07 07:31:33;;;;;;;4.70;4.40;;;25.10;76.70;;;;;;5137293;27;20799;-86
2021/06/07 07:33:59;;;;;;;5.03;4.30;;;25.20;76.80;;;;;;5137491;27;20479;-84
2021/06/07 07:36:26;;;;;;;5.60;4.30;;;25.20;76.90;;;;;;5137531;27;20437;-84
2021/06/07 07:38:53;;;;;;;4.93;4.50;;;25.20;76.90;;;;;;5136801;27;20473;-85
2021/06/07 07:41:20;;;;;;;4.53;4.33;;;25.20;76.90;;;;;;5136746;27;20436;-85
2021/06/07 07:43:47;;;;;;;4.33;3.93;;;25.20;77.00;;;;;;5136567;27;20448;-86
2021/06/07 07:46:14;;;;;;;4.30;4.00;;;25.20;77.10;;;;;;5136672;27;21001;-85
2021/06/07 07:48:40;;;;;;;4.37;4.07;;;25.20;77.10;;;;;;5136842;27;20439;-85
2021/06/07 07:51:06;;;;;;;4.70;4.40;;;25.20;77.00;;;;;;5136525;27;20799;-85
2021/06/07 07:53:33;;;;;;;4.50;4.20;;;25.20;77.00;;;;;;5136549;27;20494;-84
2021/06/07 07:56:00;;;;;;;4.67;4.37;;;25.20;77.00;;;;;;5136844;27;20919;-90
2021/06/07 07:58:27;;;;;;;4.43;4.03;;;25.20;77.00;;;;;;5136718;27;20439;-90
2021/06/07 08:00:54;;;;;;;3.60;3.30;;;25.20;76.70;;;;;;5137269;27;20438;-93
2021/06/07 08:03:20;;;;;;;4.23;3.83;;;25.30;76.60;;;;;;5137054;27;20454;-91
2021/06/07 08:05:47;;;;;;;4.07;3.40;;;25.20;76.50;;;;;;5136698;27;20443;-91
2021/06/07 08:08:14;;;;;;;3.17;2.97;;;25.20;76.60;;;;;;5136597;27;20429;-91
2021/06/07 08:10:40;;;;;;;6.73;3.87;;;25.20;76.50;;;;;;5137211;27;20860;-91
2021/06/07 08:13:08;;;;;;;4.03;3.60;;;25.20;76.50;;;;;;5136517;27;20488;-91
2021/06/07 08:15:34;;;;;;;5.57;3.53;;;25.20;76.40;;;;;;5136990;27;20873;-91
2021/06/07 08:18:01;;;;;;;5.57;4.10;;;25.20;76.40;;;;;;5136801;27;20479;-91
2021/06/07 08:20:27;;;;;;;4.30;3.20;;;25.20;76.60;;;;;;5136774;27;20452;-91
2021/06/07 08:22:55;;;;;;;3.70;3.50;;;25.20;76.40;;;;;;5136768;27;20473;-90
2021/06/07 08:25:23;;;;;;;4.50;4.10;;;25.20;76.30;;;;;;5136531;27;20458;-91
2021/06/07 08:27:50;;;;;;;3.83;3.43;;;25.20;76.60;;;;;;5136617;27;20489;-91
2021/06/07 08:30:20;;;;;;;4.80;4.50;;;25.20;76.60;;;;;;5136939;27;20455;-91
2021/06/07 08:32:47;;;;;;;4.10;3.90;;;25.20;76.60;;;;;;5136765;27;20487;-91
2021/06/07 08:35:15;;;;;;;3.60;3.40;;;25.20;76.50;;;;;;5136825;27;20447;-91
2021/06/07 08:37:41;;;;;;;3.97;3.67;;;25.20;76.40;;;;;;5136144;27;20542;-90
2021/06/07 08:40:11;;;;;;;4.50;3.80;;;25.20;76.30;;;;;;5136204;27;20807;-91
2021/06/07 08:42:40;;;;;;;3.50;3.20;;;25.20;76.50;;;;;;5135678;27;20451;-91
2021/06/07 08:45:08;;;;;;;4.17;3.77;;;25.20;76.50;;;;;;5135989;27;20451;-87
2021/06/07 08:47:36;;;;;;;5.10;4.60;;;25.20;76.50;;;;;;5135622;27;20432;-87
2021/06/07 08:50:03;;;;;;;5.30;3.97;;;25.20;76.90;;;;;;5135597;27;20452;-85
2021/06/07 08:52:30;;;;;;;3.90;3.60;;;25.20;76.90;;;;;;5135392;27;20990;-88
2021/06/07 08:54:56;;;;;;;4.10;3.70;;;25.20;76.90;;;;;;5135935;27;20440;-88
2021/06/07 08:57:23;;;;;;;4.30;4.00;;;25.20;76.80;;;;;;5135579;27;20458;-88
2021/06/07 08:59:49;;;;;;;5.37;4.70;;;25.20;76.60;;;;;;5135600;27;20540;-89
2021/06/07 09:02:16;;;;;;;4.17;3.77;;;25.20;76.50;;;;;;5135439;27;20453;-89
2021/06/07 09:04:52;;;;;;;4.33;4.10;;;25.20;76.50;;;;;;5135569;27;20441;-88
2021/06/07 09:07:19;;;;;;;4.90;4.43;;;25.20;76.60;;;;;;5136723;27;20431;-88
2021/06/07 09:10:08;;;;;;;6.90;4.37;;;25.20;76.60;;;;;;5135967;27;20494;-88
2021/06/07 09:12:34;;;;;;;4.33;4.00;;;25.20;76.40;;;;;;5135478;27;20822;-87
2021/06/07 09:15:00;;;;;;;4.70;4.40;;;25.20;76.40;;;;;;5135338;27;20451;-88
2021/06/07 09:17:27;;;;;;;4.97;4.57;;;25.20;76.70;;;;;;5135169;27;20444;-88
2021/06/07 09:20:14;;;;;;;4.60;4.00;;;25.20;76.80;;;;;;5135007;27;20534;-87
2021/06/07 09:22:47;;;;;;;4.73;4.37;;;25.20;76.70;;;;;;5135032;27;20994;-87
2021/06/07 09:25:16;;;;;;;5.97;4.47;;;25.20;76.80;;;;;;5135167;27;20419;-89
2021/06/07 09:27:59;;;;;;;3.70;3.40;;;25.20;76.90;;;;;;5135168;27;20447;-89
2021/06/07 09:30:28;;;;;;;4.13;3.73;;;25.20;76.60;;;;;;5135200;27;20439;-89
2021/06/07 09:33:26;;;;;;;3.90;3.70;;;25.20;76.60;;;;;;5134788;27;20493;-89
2021/06/07 09:36:20;;;;;;;3.93;3.50;;;25.20;76.40;;;;;;5134244;27;20451;-90
2021/06/07 09:38:58;;;;;;;4.03;3.73;;;25.20;76.40;;;;;;5132929;27;20976;-90
2021/06/07 09:41:26;;;;;;;3.80;3.60;;;25.20;76.50;;;;;;5116505;27;20437;-90
2021/06/07 09:43:54;;;;;;;5.20;4.33;;;25.20;76.50;;;;;;5134713;27;20486;-90
2021/06/07 09:46:24;;;;;;;3.77;3.47;;;25.20;76.50;;;;;;5134855;27;20941;-90
2021/06/07 09:49:05;;;;;;;3.50;3.27;;;25.20;76.50;;;;;;5134492;27;20435;-89
2021/06/07 09:51:33;;;;;;;4.10;3.80;;;25.20;76.50;;;;;;5134643;27;20525;-89
2021/06/07 09:53:59;;;;;;;3.70;3.40;;;25.20;76.40;;;;;;5134396;27;20867;-88
2021/06/07 09:56:26;;;;;;;4.40;4.00;;;25.20;77.30;;;;;;5135040;28;20434;-85
2021/06/07 09:58:53;;;;;;;3.70;3.50;;;25.20;76.60;;;;;;5134814;28;20445;-85
2021/06/07 10:01:21;;;;;;;3.83;3.60;;;25.20;76.70;;;;;;5134618;28;20941;-88
2021/06/07 10:03:51;;;;;;;4.30;3.63;;;25.20;76.60;;;;;;5134726;28;20525;-89
2021/06/07 10:06:26;;;;;;;3.90;3.60;;;25.30;76.70;;;;;;5135222;28;20435;-89
2021/06/07 10:08:59;;;;;;;3.77;3.47;;;25.20;77.30;;;;;;5134637;28;20450;-88
2021/06/07 10:11:27;;;;;;;3.60;3.23;;;25.20;76.40;;;;;;5134887;28;20944;-88
2021/06/07 10:14:14;;;;;;;4.97;3.80;;;25.20;76.40;;;;;;5134380;28;20486;-88
2021/06/07 10:16:50;;;;;;;3.67;3.37;;;25.20;76.30;;;;;;5134837;28;20452;-88
2021/06/07 10:19:19;;;;;;;3.43;3.23;;;25.20;76.30;;;;;;5134836;28;20506;-88
2021/06/07 10:21:46;;;;;;;3.80;3.50;;;25.20;76.30;;;;;;5134655;28;20442;-85
2021/06/07 10:24:18;;;;;;;4.30;4.00;;;25.20;76.50;;;;;;5130500;28;20451;-89
2021/06/07 10:26:44;;;;;;;4.43;3.17;;;25.20;76.60;;;;;;5114341;28;20505;-89
2021/06/07 10:29:11;;;;;;;4.10;3.80;;;25.20;76.60;;;;;;5114341;28;20491;-89
2021/06/07 10:31:40;;;;;;;4.90;4.13;;;25.20;76.40;;;;;;5097688;28;20436;-88
2021/06/07 10:34:08;;;;;;;7.87;3.47;;;25.20;76.30;;;;;;5118876;28;20490;-88
2021/06/07 10:36:40;;;;;;;3.73;3.43;;;25.20;76.30;;;;;;5117530;28;20444;-88
2021/06/07 10:39:30;;;;;;;3.97;3.57;;;25.20;76.20;;;;;;5117194;28;20468;-89
2021/06/07 10:42:20;;;;;;;4.00;3.70;;;25.20;77.00;;;;;;5117446;28;20443;-89
2021/06/07 10:44:50;;;;;;;4.27;3.20;;;25.20;76.20;;;;;;5117309;28;20957;-89
2021/06/07 10:47:20;;;;;;;3.40;3.20;;;25.20;76.40;;;;;;5117885;28;20790;-89
2021/06/07 10:49:48;;;;;;;3.60;3.30;;;25.20;76.30;;;;;;5117595;28;20452;-89
2021/06/07 10:52:18;;;;;;;3.50;3.30;;;25.20;76.30;;;;;;5117385;28;20465;-89
2021/06/07 10:54:47;;;;;;;3.30;3.10;;;25.20;76.20;;;;;;5117326;28;20914;-89
2021/06/07 10:57:48;;;;;;;3.60;3.30;;;25.30;76.30;;;;;;5117204;28;20928;-89
2021/06/07 11:00:20;;;;;;;3.57;2.83;;;25.20;76.10;;;;;;5034602;28;20542;-89
2021/06/07 11:02:48;;;;;;;3.47;2.90;;;25.20;76.30;;;;;;5107564;27;20444;-90
2021/06/07 11:05:19;;;;;;;4.47;3.83;;;25.20;76.40;;;;;;5132595;27;20427;-90
2021/06/07 11:07:58;;;;;;;3.87;3.57;;;25.20;76.40;;;;;;5137934;27;20442;-90
2021/06/07 11:10:29;;;;;;;5.57;3.30;;;25.20;76.40;;;;;;5137919;27;20439;-91
2021/06/07 11:12:56;;;;;;;3.50;3.13;;;25.20;76.40;;;;;;5137698;27;20989;-90
2021/06/07 11:15:25;;;;;;;3.83;3.53;;;25.20;76.30;;;;;;5138110;27;20455;-91
2021/06/07 11:17:52;;;;;;;4.63;3.57;;;25.20;76.20;;;;;;5138462;27;20439;-91
2021/06/07 11:20:35;;;;;;;3.17;2.93;;;25.30;76.30;;;;;;5138569;27;20440;-91
2021/06/07 11:23:10;;;;;;;3.33;3.13;;;25.30;76.20;;;;;;5137580;27;20461;-90
2021/06/07 11:25:51;;;;;;;3.87;3.57;;;25.20;76.20;;;;;;5138029;27;20838;-92
2021/06/07 11:28:32;;;;;;;11.70;8.03;;;25.40;76.20;;;;;;5137534;27;20452;-90
2021/06/07 11:30:59;;;;;;;30.50;15.30;;;25.30;76.30;;;;;;5137837;27;20424;-91
2021/06/07 11:33:26;;;;;;;20.67;11.57;;;25.20;76.20;;;;;;5137445;27;20536;-91
2021/06/07 11:35:53;;;;;;;15.17;7.63;;;25.30;76.30;;;;;;5137667;27;20797;-91
2021/06/07 11:38:30;;;;;;;10.87;6.67;;;25.20;76.30;;;;;;5136779;27;20502;-90
2021/06/07 11:40:59;;;;;;;12.87;7.17;;;25.30;76.20;;;;;;5132706;27;20450;-91
2021/06/07 11:43:52;;;;;;;10.67;6.90;;;25.30;76.20;;;;;;5136367;27;20453;-91
2021/06/07 11:46:52;;;;;;;8.07;5.53;;;25.30;76.20;;;;;;5137341;27;20417;-91
2021/06/07 11:49:19;;;;;;;8.77;5.60;;;25.30;76.30;;;;;;5137576;27;20899;-90
2021/06/07 11:51:57;;;;;;;11.13;5.40;;;25.30;76.30;;;;;;5137028;27;20459;-91
2021/06/07 11:54:46;;;;;;;8.03;5.17;;;25.30;76.30;;;;;;5136985;27;20475;-91
2021/06/07 11:57:14;;;;;;;9.23;4.67;;;25.30;76.20;;;;;;5136747;27;20440;-90
2021/06/07 11:59:41;;;;;;;6.70;4.73;;;25.30;76.20;;;;;;5134174;27;20444;-91
2021/06/07 12:02:12;;;;;;;5.73;5.10;;;25.30;76.20;;;;;;5129091;27;20460;-90
2021/06/07 12:04:40;;;;;;;5.20;4.40;;;25.30;76.20;;;;;;5135998;27;20437;-90
2021/06/07 12:07:08;;;;;;;5.07;4.67;;;25.30;76.40;;;;;;5126220;27;20527;-90
2021/06/07 12:09:37;;;;;;;5.27;4.63;;;25.30;76.30;;;;;;5129918;27;20435;-89
2021/06/07 12:12:04;;;;;;;5.40;4.40;;;25.30;76.20;;;;;;5137044;27;20800;-91
2021/06/07 12:14:36;;;;;;;7.00;4.23;;;25.30;76.20;;;;;;5147737;27;20483;-90
2021/06/07 12:17:04;;;;;;;5.70;3.93;;;25.40;76.20;;;;;;5157254;27;20900;-90
2021/06/07 12:19:32;;;;;;;4.57;4.10;;;25.40;76.20;;;;;;5154576;27;20443;-87
2021/06/07 12:21:59;;;;;;;6.60;4.60;;;25.40;76.20;;;;;;5147689;27;20814;-90
2021/06/07 12:24:25;;;;;;;9.60;5.30;;;25.40;76.10;;;;;;5141272;27;20527;-91
2021/06/07 12:29:38;;;;;;;8.90;4.37;;;25.40;76.10;;;;;;5137917;27;20426;-91
2021/06/07 12:32:17;;;;;;;4.20;3.80;;;25.50;76.40;;;;;;5136834;27;20535;-91
2021/06/07 12:35:10;;;;;;;5.30;4.23;;;25.40;76.30;;;;;;5137562;27;20439;-92
2021/06/07 12:37:38;;;;;;;4.20;3.73;;;25.40;76.30;;;;;;5136602;27;20482;-91
2021/06/07 12:40:17;;;;;;;4.50;4.10;;;25.40;76.30;;;;;;5129226;27;20806;-91
2021/06/07 12:42:45;;;;;;;4.37;3.70;;;25.40;76.30;;;;;;5115814;28;20441;-91
2021/06/07 12:45:16;;;;;;;8.00;3.37;;;25.40;76.40;;;;;;5115622;28;21093;-91
2021/06/07 12:47:43;;;;;;;3.87;3.57;;;25.40;76.40;;;;;;5116234;28;20445;-91
2021/06/07 12:50:13;;;;;;;6.00;4.00;;;25.40;76.40;;;;;;5115751;28;20462;-91
2021/06/07 12:52:40;;;;;;;7.07;4.50;;;25.40;77.30;;;;;;5115725;28;20546;-92
2021/06/07 12:55:09;;;;;;;4.30;3.53;;;25.40;76.40;;;;;;5114547;28;20450;-90
2021/06/07 12:57:35;;;;;;;6.03;3.93;;;25.40;76.40;;;;;;5115695;28;20983;-93
2021/06/07 13:00:25;;;;;;;4.23;3.10;;;25.50;76.50;;;;;;5115535;28;20446;-92